createdAt,value
2023-12-23T00:00:42.912Z,3.30
2023-12-23T00:03:09.661Z,3.30
2023-12-23T00:05:36.336Z,3.30
2023-12-23T00:08:03.515Z,3.30
2023-12-23T00:10:30.664Z,3.30
2023-12-23T00:12:57.380Z,3.30
2023-12-23T00:15:24.543Z,3.40
2023-12-23T00:17:51.974Z,3.40
2023-12-23T00:20:19.085Z,3.40
2023-12-23T00:22:46.220Z,3.50
2023-12-23T00:25:13.042Z,3.50
2023-12-23T00:27:39.666Z,3.50
2023-12-23T00:30:07.654Z,3.50
2023-12-23T00:32:34.375Z,3.50
2023-12-23T00:35:01.079Z,3.50
2023-12-23T00:37:28.411Z,3.50
2023-12-23T00:39:55.064Z,3.50
2023-12-23T00:42:21.705Z,3.50
2023-12-23T00:44:48.676Z,3.50
2023-12-23T00:47:16.274Z,3.50
2023-12-23T00:49:43.086Z,3.50
2023-12-23T00:52:10.089Z,3.50
2023-12-23T00:54:36.705Z,3.50
2023-12-23T00:57:03.433Z,3.50
2023-12-23T00:59:30.377Z,3.50
2023-12-23T01:01:57.097Z,3.50
2023-12-23T01:04:23.809Z,3.50
2023-12-23T01:06:51.885Z,3.50
2023-12-23T01:09:18.839Z,3.50
2023-12-23T01:11:45.477Z,3.50
2023-12-23T01:14:12.237Z,3.50
2023-12-23T01:16:39.266Z,3.50
2023-12-23T01:19:06.257Z,3.50
2023-12-23T01:21:32.922Z,3.50
2023-12-23T01:23:59.605Z,3.50
2023-12-23T01:26:26.569Z,3.50
2023-12-23T01:28:53.228Z,3.40
2023-12-23T01:31:21.824Z,3.40
2023-12-23T01:33:48.947Z,3.50
2023-12-23T01:36:16.720Z,3.50
2023-12-23T01:38:43.385Z,3.40
2023-12-23T01:41:11.767Z,3.40
2023-12-23T01:43:38.792Z,3.40
2023-12-23T01:46:06.896Z,3.40
2023-12-23T01:48:38.542Z,3.30
2023-12-23T01:51:05.835Z,3.30
2023-12-23T01:53:33.712Z,3.30
2023-12-23T01:56:01.156Z,3.20
2023-12-23T01:58:28.436Z,3.20
2023-12-23T02:00:55.737Z,3.20
2023-12-23T02:03:22.618Z,3.20
2023-12-23T02:05:49.335Z,3.10
2023-12-23T02:08:16.480Z,3.10
2023-12-23T02:10:43.437Z,3.10
2023-12-23T02:13:27.178Z,3.10
2023-12-23T02:15:54.650Z,3.10
2023-12-23T02:18:22.606Z,3.10
2023-12-23T02:20:51.120Z,3.10
2023-12-23T02:23:18.968Z,3.00
2023-12-23T02:25:49.946Z,3.10
2023-12-23T02:28:19.328Z,3.00
2023-12-23T02:30:47.441Z,3.00
2023-12-23T02:33:14.793Z,3.00
2023-12-23T02:35:41.578Z,3.00
2023-12-23T02:38:09.189Z,3.00
2023-12-23T02:40:36.769Z,3.00
2023-12-23T02:43:03.486Z,3.00
2023-12-23T02:45:30.155Z,3.00
2023-12-23T02:47:57.235Z,3.00
2023-12-23T02:50:24.384Z,3.00
2023-12-23T02:52:51.364Z,3.00
2023-12-23T02:55:19.888Z,3.10
2023-12-23T02:57:46.979Z,3.10
2023-12-23T03:00:14.229Z,3.10
2023-12-23T03:02:41.221Z,3.20
2023-12-23T03:05:08.388Z,3.10
2023-12-23T03:07:35.122Z,3.20
2023-12-23T03:10:02.538Z,3.20
2023-12-23T03:12:29.270Z,3.20
2023-12-23T03:14:56.050Z,3.20
2023-12-23T03:17:23.298Z,3.20
2023-12-23T03:19:50.421Z,3.20
2023-12-23T03:22:17.617Z,3.20
2023-12-23T03:24:44.328Z,3.20
2023-12-23T03:27:10.973Z,3.20
2023-12-23T03:29:37.918Z,3.10
2023-12-23T03:32:04.954Z,3.10
2023-12-23T03:34:31.606Z,3.10
2023-12-23T03:36:58.236Z,3.10
2023-12-23T03:39:24.857Z,3.10
2023-12-23T03:41:51.877Z,3.10
2023-12-23T03:44:18.550Z,3.10
2023-12-23T03:46:45.191Z,3.10
2023-12-23T03:49:12.237Z,3.10
2023-12-23T03:51:38.883Z,3.10
2023-12-23T03:54:05.789Z,3.10
2023-12-23T03:56:32.762Z,3.20
2023-12-23T03:58:59.564Z,3.10
2023-12-23T04:01:26.296Z,3.00
2023-12-23T04:03:53.759Z,3.00
2023-12-23T04:06:20.432Z,3.00
2023-12-23T04:08:47.115Z,2.90
2023-12-23T04:11:13.885Z,2.90
2023-12-23T04:13:40.635Z,2.80
2023-12-23T04:16:07.843Z,2.80
2023-12-23T04:18:34.616Z,2.80
2023-12-23T04:21:01.361Z,2.70
2023-12-23T04:23:28.307Z,2.70
2023-12-23T04:25:55.115Z,2.60
2023-12-23T04:28:25.788Z,2.50
2023-12-23T04:30:56.526Z,2.50
2023-12-23T04:33:23.796Z,2.40
2023-12-23T04:35:50.819Z,2.50
2023-12-23T04:38:17.843Z,2.40
2023-12-23T04:40:44.541Z,2.40
2023-12-23T04:43:11.293Z,2.40
2023-12-23T04:45:38.207Z,2.40
2023-12-23T04:48:05.689Z,2.40
2023-12-23T04:50:32.350Z,2.40
2023-12-23T04:52:59.565Z,2.40
2023-12-23T04:55:26.679Z,2.30
2023-12-23T04:57:53.704Z,2.30
2023-12-23T05:00:20.754Z,2.30
2023-12-23T05:02:47.847Z,2.30
2023-12-23T05:05:14.856Z,2.30
2023-12-23T05:07:42.055Z,2.30
2023-12-23T05:10:09.483Z,2.30
2023-12-23T05:12:36.532Z,2.30
2023-12-23T05:15:03.830Z,2.30
2023-12-23T05:17:31.226Z,2.30
2023-12-23T05:19:58.089Z,2.20
2023-12-23T05:22:24.813Z,2.20
2023-12-23T05:24:51.797Z,2.20
2023-12-23T05:27:18.421Z,2.30
2023-12-23T05:29:45.064Z,2.30
2023-12-23T05:32:12.064Z,2.40
2023-12-23T05:34:38.824Z,2.40
2023-12-23T05:37:05.539Z,2.40
2023-12-23T05:39:32.634Z,2.40
2023-12-23T05:41:59.864Z,2.40
2023-12-23T05:44:26.993Z,2.40
2023-12-23T05:46:53.849Z,2.40
2023-12-23T05:49:23.579Z,2.40
2023-12-23T05:51:54.036Z,2.40
2023-12-23T05:54:21.035Z,2.40
2023-12-23T05:56:47.684Z,2.40
2023-12-23T05:59:14.811Z,2.40
2023-12-23T06:01:41.917Z,2.40
2023-12-23T06:04:08.900Z,2.50
2023-12-23T06:06:35.645Z,2.40
2023-12-23T06:09:02.370Z,2.40
2023-12-23T06:11:30.388Z,2.40
2023-12-23T06:13:57.118Z,2.30
2023-12-23T06:16:24.139Z,2.30
2023-12-23T06:18:50.868Z,2.30
2023-12-23T06:21:17.884Z,2.30
2023-12-23T06:23:44.524Z,2.30
2023-12-23T06:26:12.072Z,2.30
2023-12-23T06:28:39.236Z,2.30
2023-12-23T06:31:06.224Z,2.30
2023-12-23T06:33:32.952Z,2.20
2023-12-23T06:35:59.678Z,2.20
2023-12-23T06:38:26.686Z,2.20
2023-12-23T06:40:53.453Z,2.20
2023-12-23T06:43:44.707Z,2.20
2023-12-23T06:46:10.315Z,2.10
2023-12-23T06:48:40.274Z,2.10
2023-12-23T06:51:07.736Z,2.10
2023-12-23T06:53:34.524Z,2.10
2023-12-23T06:56:06.166Z,2.10
2023-12-23T06:58:33.336Z,2.10
2023-12-23T07:01:00.570Z,2.10
2023-12-23T07:03:27.275Z,2.10
2023-12-23T07:05:54.559Z,2.10
2023-12-23T07:08:21.266Z,2.10
2023-12-23T07:10:48.699Z,2.10
2023-12-23T07:13:15.416Z,2.10
2023-12-23T07:15:42.583Z,2.10
2023-12-23T07:18:10.493Z,2.10
2023-12-23T07:23:24.646Z,2.20
2023-12-23T07:25:51.866Z,2.20
2023-12-23T07:28:18.809Z,2.20
2023-12-23T07:30:46.724Z,2.20
2023-12-23T07:33:14.383Z,2.20
2023-12-23T07:35:41.693Z,2.20
2023-12-23T07:38:08.956Z,2.30
2023-12-23T07:40:36.893Z,2.30
2023-12-23T07:43:04.088Z,2.40
2023-12-23T07:45:31.424Z,2.40
2023-12-23T07:47:58.648Z,2.50
2023-12-23T07:50:25.826Z,2.60
2023-12-23T07:52:52.784Z,2.70
2023-12-23T07:55:20.100Z,2.80
2023-12-23T07:57:47.232Z,2.90
2023-12-23T08:00:15.494Z,3.00
2023-12-23T08:02:42.260Z,3.10
2023-12-23T08:05:09.886Z,3.20
2023-12-23T08:07:38.287Z,3.40
2023-12-23T08:10:05.807Z,3.50
2023-12-23T08:12:32.920Z,3.50
2023-12-23T08:14:59.620Z,3.60
2023-12-23T08:17:27.172Z,3.70
2023-12-23T08:19:54.329Z,3.70
2023-12-23T08:22:20.994Z,3.80
2023-12-23T08:24:48.832Z,3.80
2023-12-23T08:27:15.503Z,3.90
2023-12-23T08:29:43.177Z,4.00
2023-12-23T08:32:09.816Z,4.10
2023-12-23T08:34:37.020Z,4.20
2023-12-23T08:37:03.741Z,4.20
2023-12-23T08:39:31.663Z,4.30
2023-12-23T08:41:58.297Z,4.30
2023-12-23T08:44:25.049Z,4.40
2023-12-23T08:46:52.432Z,4.40
2023-12-23T08:49:19.310Z,4.40
2023-12-23T08:51:46.456Z,4.50
2023-12-23T08:54:13.657Z,4.50
2023-12-23T08:56:40.767Z,4.50
2023-12-23T08:59:07.478Z,4.60
2023-12-23T09:01:34.166Z,4.60
2023-12-23T09:04:01.852Z,4.70
2023-12-23T09:06:28.538Z,4.70
2023-12-23T09:08:58.538Z,4.70
2023-12-23T09:11:25.913Z,4.80
2023-12-23T09:13:53.129Z,4.80
2023-12-23T09:16:34.537Z,4.80
2023-12-23T09:19:01.285Z,4.80
2023-12-23T09:21:28.501Z,4.90
2023-12-23T09:23:55.568Z,4.90
2023-12-23T09:26:24.762Z,5.00
2023-12-23T09:28:55.359Z,5.00
2023-12-23T09:31:21.997Z,5.00
2023-12-23T09:33:49.145Z,5.00
2023-12-23T09:36:15.811Z,5.00
2023-12-23T09:38:43.189Z,5.00
2023-12-23T09:41:10.351Z,5.00
2023-12-23T09:43:37.058Z,5.00
2023-12-23T09:46:06.252Z,5.00
2023-12-23T09:48:33.318Z,5.00
2023-12-23T09:51:00.014Z,5.10
2023-12-23T09:53:29.784Z,5.10
2023-12-23T09:55:57.723Z,5.10
2023-12-23T09:58:24.436Z,5.10
2023-12-23T10:00:51.128Z,5.10
2023-12-23T10:03:23.295Z,5.10
2023-12-23T10:05:52.265Z,5.10
2023-12-23T10:08:37.799Z,5.10
2023-12-23T10:11:04.626Z,5.10
2023-12-23T10:13:31.286Z,5.10
2023-12-23T10:15:57.955Z,5.10
2023-12-23T10:18:25.822Z,5.10
2023-12-23T10:20:52.520Z,5.10
2023-12-23T10:23:19.310Z,5.10
2023-12-23T10:25:46.260Z,5.20
2023-12-23T10:28:16.476Z,5.20
2023-12-23T10:30:49.912Z,5.20
2023-12-23T10:33:19.097Z,5.20
2023-12-23T10:35:48.329Z,5.20
2023-12-23T10:38:24.994Z,5.20
2023-12-23T10:41:25.048Z,5.20
2023-12-23T10:43:54.565Z,5.20
2023-12-23T10:46:22.220Z,5.20
2023-12-23T10:48:50.911Z,5.20
2023-12-23T10:51:19.429Z,5.20
2023-12-23T10:53:47.361Z,5.20
2023-12-23T10:56:16.768Z,5.20
2023-12-23T10:58:43.803Z,5.20
2023-12-23T11:01:13.522Z,5.20
2023-12-23T11:03:40.893Z,5.20
2023-12-23T11:06:10.991Z,5.20
2023-12-23T11:08:38.705Z,5.20
2023-12-23T11:11:05.929Z,5.20
2023-12-23T11:13:32.652Z,5.20
2023-12-23T11:16:00.661Z,5.20
2023-12-23T11:18:28.428Z,5.20
2023-12-23T11:20:55.509Z,5.20
2023-12-23T11:23:28.578Z,5.20
2023-12-23T11:25:56.908Z,5.30
2023-12-23T11:28:26.631Z,5.30
2023-12-23T11:30:55.989Z,5.30
2023-12-23T11:33:24.665Z,5.30
2023-12-23T11:35:53.128Z,5.20
2023-12-23T11:38:23.323Z,5.20
2023-12-23T11:40:50.895Z,5.30
2023-12-23T11:43:17.694Z,5.30
2023-12-23T11:45:45.854Z,5.30
2023-12-23T11:48:14.348Z,5.30
2023-12-23T11:50:41.745Z,5.30
2023-12-23T11:53:10.898Z,5.30
2023-12-23T11:55:39.546Z,5.30
2023-12-23T11:58:06.208Z,5.30
2023-12-23T12:00:37.463Z,5.30
2023-12-23T12:03:08.563Z,5.30
2023-12-23T12:05:35.814Z,5.30
2023-12-23T12:08:03.153Z,5.30
2023-12-23T12:10:29.997Z,5.30
2023-12-23T12:12:56.732Z,5.30
2023-12-23T12:15:23.591Z,5.30
2023-12-23T12:17:53.056Z,5.30
2023-12-23T12:20:20.434Z,5.30
2023-12-23T12:22:48.669Z,5.40
2023-12-23T12:25:16.807Z,5.40
2023-12-23T12:27:43.890Z,5.40
2023-12-23T12:30:12.820Z,5.40
2023-12-23T12:32:46.218Z,5.40
2023-12-23T12:35:13.943Z,5.40
2023-12-23T12:37:41.972Z,5.40
2023-12-23T12:40:13.472Z,5.40
2023-12-23T12:42:47.064Z,5.40
2023-12-23T12:45:14.113Z,5.40
2023-12-23T12:47:40.903Z,5.40
2023-12-23T12:50:09.183Z,5.40
2023-12-23T12:52:36.306Z,5.40
2023-12-23T12:55:08.387Z,5.40
2023-12-23T12:57:35.555Z,5.40
2023-12-23T13:00:03.839Z,5.40
2023-12-23T13:02:31.127Z,5.40
2023-12-23T13:04:58.780Z,5.50
2023-12-23T13:07:25.619Z,5.50
2023-12-23T13:09:52.736Z,5.50
2023-12-23T13:12:19.447Z,5.50
2023-12-23T13:14:46.108Z,5.50
2023-12-23T13:17:13.494Z,5.40
2023-12-23T13:19:40.343Z,5.40
2023-12-23T13:22:07.065Z,5.50
2023-12-23T13:24:34.681Z,5.50
2023-12-23T13:27:01.373Z,5.50
2023-12-23T13:29:29.153Z,5.50
2023-12-23T13:31:55.952Z,5.50
2023-12-23T13:34:22.721Z,5.50
2023-12-23T13:36:49.453Z,5.50
2023-12-23T13:39:16.168Z,5.50
2023-12-23T13:41:43.066Z,5.50
2023-12-23T13:47:01.336Z,5.60
2023-12-23T13:49:28.875Z,5.50
2023-12-23T13:51:55.645Z,5.60
2023-12-23T13:54:22.292Z,5.60
2023-12-23T13:56:50.817Z,5.60
2023-12-23T13:59:17.500Z,5.60
2023-12-23T14:01:44.748Z,5.60
2023-12-23T14:04:11.895Z,5.60
2023-12-23T14:06:38.578Z,5.60
2023-12-23T14:09:06.776Z,5.60
2023-12-23T14:11:33.627Z,5.50
2023-12-23T14:14:00.873Z,5.60
2023-12-23T14:16:28.395Z,5.60
2023-12-23T14:18:55.557Z,5.60
2023-12-23T14:21:22.339Z,5.50
2023-12-23T14:23:49.044Z,5.50
2023-12-23T14:29:03.294Z,5.60
2023-12-23T14:31:30.653Z,5.50
2023-12-23T14:33:57.488Z,5.50
2023-12-23T14:36:25.576Z,5.50
2023-12-23T14:38:52.244Z,5.50
2023-12-23T14:41:19.495Z,5.60
2023-12-23T14:43:46.767Z,5.60
2023-12-23T14:46:13.569Z,5.60
2023-12-23T14:48:40.312Z,5.60
2023-12-23T14:51:07.032Z,5.60
2023-12-23T14:53:34.151Z,5.60
2023-12-23T14:56:01.302Z,5.60
2023-12-23T14:58:28.022Z,5.60
2023-12-23T15:00:54.731Z,5.60
2023-12-23T15:03:21.750Z,5.60
2023-12-23T15:05:48.487Z,5.60
2023-12-23T15:08:15.257Z,5.60
2023-12-23T15:10:42.020Z,5.60
2023-12-23T15:13:08.833Z,5.60
2023-12-23T15:15:35.865Z,5.60
2023-12-23T15:18:03.789Z,5.60
2023-12-23T15:20:30.693Z,5.60
2023-12-23T15:22:57.473Z,5.60
2023-12-23T15:25:24.120Z,5.60
2023-12-23T15:30:25.633Z,5.60
2023-12-23T15:32:52.556Z,5.60
2023-12-23T15:35:19.485Z,5.60
2023-12-23T15:37:46.533Z,5.60
2023-12-23T15:40:13.627Z,5.60
2023-12-23T15:42:40.298Z,5.60
2023-12-23T15:45:07.555Z,5.60
2023-12-23T15:47:34.350Z,5.60
2023-12-23T15:50:01.182Z,5.60
2023-12-23T15:52:27.845Z,5.60
2023-12-23T15:54:54.860Z,5.60
2023-12-23T15:57:21.496Z,5.60
2023-12-23T15:59:48.169Z,5.60
2023-12-23T16:02:15.208Z,5.60
2023-12-23T16:04:43.152Z,5.60
2023-12-23T16:07:09.887Z,5.60
2023-12-23T16:09:36.965Z,5.60
2023-12-23T16:12:04.051Z,5.60
2023-12-23T16:14:31.727Z,5.60
2023-12-23T16:16:58.488Z,5.60
2023-12-23T16:19:25.169Z,5.60
2023-12-23T16:21:52.818Z,5.60
2023-12-23T16:24:19.612Z,5.60
2023-12-23T16:26:49.477Z,5.60
2023-12-23T16:29:16.962Z,5.60
2023-12-23T16:31:44.004Z,5.60
2023-12-23T16:34:10.729Z,5.60
2023-12-23T16:36:37.691Z,5.60
2023-12-23T16:39:04.404Z,5.60
2023-12-23T16:41:31.416Z,5.60
2023-12-23T16:43:58.369Z,5.60
2023-12-23T16:46:28.059Z,5.60
2023-12-23T16:48:55.328Z,5.60
2023-12-23T16:51:22.712Z,5.60
2023-12-23T16:53:49.351Z,5.60
2023-12-23T16:56:16.417Z,5.60
2023-12-23T16:58:43.072Z,5.60
2023-12-23T17:01:11.964Z,5.60
2023-12-23T17:03:38.667Z,5.60
2023-12-23T17:06:07.276Z,5.60
2023-12-23T17:08:34.118Z,5.60
2023-12-23T17:11:01.195Z,5.70
2023-12-23T17:13:27.932Z,5.60
2023-12-23T17:15:55.586Z,5.60
2023-12-23T17:18:22.350Z,5.60
2023-12-23T17:20:49.149Z,5.60
2023-12-23T17:23:16.179Z,5.60
2023-12-23T17:25:42.840Z,5.60
2023-12-23T17:28:12.735Z,5.60
2023-12-23T17:30:41.274Z,5.60
2023-12-23T17:33:13.417Z,5.60
2023-12-23T17:35:40.917Z,5.60
2023-12-23T17:38:10.757Z,5.60
2023-12-23T17:40:38.837Z,5.60
2023-12-23T17:43:10.672Z,5.60
2023-12-23T17:45:37.997Z,5.60
2023-12-23T17:48:07.719Z,5.60
2023-12-23T17:50:35.328Z,5.60
2023-12-23T17:53:02.129Z,5.60
2023-12-23T17:55:28.853Z,5.60
2023-12-23T17:57:55.830Z,5.60
2023-12-23T18:00:24.827Z,5.60
2023-12-23T18:02:52.274Z,5.60
2023-12-23T18:05:19.879Z,5.50
2023-12-23T18:07:46.683Z,5.60
2023-12-23T18:10:13.756Z,5.60
2023-12-23T18:12:40.467Z,5.50
2023-12-23T18:15:07.565Z,5.50
2023-12-23T18:17:34.282Z,5.50
2023-12-23T18:20:01.071Z,5.50
2023-12-23T18:22:27.765Z,5.50
2023-12-23T18:24:54.752Z,5.50
2023-12-23T18:27:21.730Z,5.50
2023-12-23T18:29:48.373Z,5.50
2023-12-23T18:32:15.363Z,5.40
2023-12-23T18:34:42.166Z,5.40
2023-12-23T18:37:09.476Z,5.50
2023-12-23T18:39:36.191Z,5.40
2023-12-23T18:42:02.923Z,5.40
2023-12-23T18:44:30.085Z,5.40
2023-12-23T18:46:56.811Z,5.40
2023-12-23T18:49:24.033Z,5.40
2023-12-23T18:51:51.461Z,5.40
2023-12-23T18:54:18.193Z,5.40
2023-12-23T18:56:45.180Z,5.40
2023-12-23T18:59:12.587Z,5.40
2023-12-23T19:01:39.268Z,5.40
2023-12-23T19:04:08.199Z,5.40
2023-12-23T19:06:35.169Z,5.40
2023-12-23T19:09:01.825Z,5.40
2023-12-23T19:11:28.707Z,5.40
2023-12-23T19:13:55.479Z,5.40
2023-12-23T19:16:22.185Z,5.40
2023-12-23T19:18:48.985Z,5.40
2023-12-23T19:21:15.702Z,5.40
2023-12-23T19:23:42.394Z,5.40
2023-12-23T19:26:09.392Z,5.40
2023-12-23T19:28:37.276Z,5.40
2023-12-23T19:31:05.210Z,5.40
2023-12-23T19:33:32.095Z,5.40
2023-12-23T19:35:58.817Z,5.40
2023-12-23T19:38:25.502Z,5.40
2023-12-23T19:40:52.210Z,5.40
2023-12-23T19:43:19.760Z,5.40
2023-12-23T19:45:46.907Z,5.40
2023-12-23T19:48:14.527Z,5.50
2023-12-23T19:50:41.398Z,5.40
2023-12-23T19:53:08.553Z,5.40
2023-12-23T19:55:35.289Z,5.50
2023-12-23T19:58:01.976Z,5.50
2023-12-23T20:00:29.021Z,5.40
2023-12-23T20:02:57.131Z,5.50
2023-12-23T20:05:23.997Z,5.50
2023-12-23T20:07:51.299Z,5.50
2023-12-23T20:10:19.793Z,5.50
2023-12-23T20:12:46.476Z,5.50
2023-12-23T20:15:13.516Z,5.50
2023-12-23T20:17:40.878Z,5.50
2023-12-23T20:20:08.321Z,5.50
2023-12-23T20:22:35.867Z,5.50
2023-12-23T20:25:02.901Z,5.50
2023-12-23T20:27:29.602Z,5.50
2023-12-23T20:29:56.315Z,5.50
2023-12-23T20:32:23.327Z,5.50
2023-12-23T20:34:50.182Z,5.50
2023-12-23T20:37:16.964Z,5.50
2023-12-23T20:39:45.415Z,5.50
2023-12-23T20:42:15.275Z,5.60
2023-12-23T20:44:42.014Z,5.50
2023-12-23T20:47:09.233Z,5.60
2023-12-23T20:49:35.925Z,5.60
2023-12-23T20:52:02.616Z,5.60
2023-12-23T20:54:29.586Z,5.50
2023-12-23T20:56:56.343Z,5.60
2023-12-23T20:59:23.045Z,5.60
2023-12-23T21:01:51.380Z,5.60
2023-12-23T21:04:18.324Z,5.60
2023-12-23T21:06:44.962Z,5.60
2023-12-23T21:09:12.002Z,5.60
2023-12-23T21:11:38.670Z,5.60
2023-12-23T21:14:05.392Z,5.60
2023-12-23T21:16:32.387Z,5.60
2023-12-23T21:18:59.210Z,5.60
2023-12-23T21:21:25.938Z,5.60
2023-12-23T21:23:52.945Z,5.60
2023-12-23T21:26:23.118Z,5.60
2023-12-23T21:28:50.092Z,5.60
2023-12-23T21:31:17.301Z,5.60
2023-12-23T21:33:44.112Z,5.60
2023-12-23T21:36:10.978Z,5.60
2023-12-23T21:38:37.802Z,5.60
2023-12-23T21:41:04.611Z,5.60
2023-12-23T21:43:31.611Z,5.60
2023-12-23T21:45:58.300Z,5.60
2023-12-23T21:48:25.083Z,5.60
2023-12-23T21:50:54.937Z,5.60
2023-12-23T21:53:25.306Z,5.60
2023-12-23T21:55:52.417Z,5.70
2023-12-23T21:58:19.200Z,5.70
2023-12-23T22:00:48.598Z,5.70
2023-12-23T22:03:15.558Z,5.70
2023-12-23T22:05:42.390Z,5.70
2023-12-23T22:08:09.106Z,5.70
2023-12-23T22:10:36.148Z,5.70
2023-12-23T22:13:02.826Z,5.70
2023-12-23T22:15:29.478Z,5.70
2023-12-23T22:17:56.563Z,5.70
2023-12-23T22:20:23.325Z,5.70
2023-12-23T22:22:50.245Z,5.80
2023-12-23T22:25:19.238Z,5.70
2023-12-23T22:27:45.912Z,5.70
2023-12-23T22:30:13.026Z,5.70
2023-12-23T22:32:40.263Z,5.80
2023-12-23T22:35:07.838Z,5.70
2023-12-23T22:37:35.100Z,5.70
2023-12-23T22:40:02.285Z,5.70
2023-12-23T22:42:28.913Z,5.70
2023-12-23T22:44:55.617Z,5.70
2023-12-23T22:47:22.650Z,5.70
2023-12-23T22:49:50.490Z,5.70
2023-12-23T22:52:18.349Z,5.70
2023-12-23T22:54:45.108Z,5.70
2023-12-23T22:57:12.096Z,5.70
2023-12-23T22:59:39.186Z,5.80
2023-12-23T23:02:06.234Z,5.80
2023-12-23T23:04:32.916Z,5.80
2023-12-23T23:06:59.882Z,5.80
2023-12-23T23:09:30.766Z,5.80
2023-12-23T23:11:58.599Z,5.80
2023-12-23T23:14:25.568Z,5.80
2023-12-23T23:16:52.508Z,5.80
2023-12-23T23:19:19.707Z,5.80
2023-12-23T23:21:46.862Z,5.80
2023-12-23T23:24:13.903Z,5.80
2023-12-23T23:26:40.597Z,5.80
2023-12-23T23:29:07.490Z,5.80
2023-12-23T23:31:34.482Z,5.80
2023-12-23T23:34:01.183Z,5.80
2023-12-23T23:36:28.267Z,5.80
2023-12-23T23:38:55.005Z,5.80
2023-12-23T23:41:22.284Z,5.80
2023-12-23T23:43:49.331Z,5.80
2023-12-23T23:46:17.418Z,5.80
2023-12-23T23:48:45.179Z,5.80
2023-12-23T23:51:19.070Z,5.80
2023-12-23T23:53:46.325Z,5.80
2023-12-23T23:56:17.290Z,5.70
2023-12-23T23:58:47.001Z,5.70
